Terminal Aerodrome Forecast
Issued by NWS

Home | Current Version | Previous Version | Text Only | Print | Product List | Glossary On
Versions: 1 2 3 4 5 6 7 8 9 10 11 12 13 14 15
000
FTUS43 KMPX 052144 AAA
TAFRWF
TAF AMD
KRWF 052144Z 0522/0618 12015G24KT P6SM OVC020
     FM060200 12012KT P6SM VCSH OVC015
     FM060800 13011KT 6SM -SHRA SCT015 BKN025
     FM061400 14014G21KT 5SM -RA BR SCT020 BKN030=

USA.gov is the U.S. government's official web portal to all federal, state and local government web resources and services.